createdAt,value
2023-12-12T00:01:59.042Z,14.71
2023-12-12T00:04:25.478Z,14.11
2023-12-12T00:06:51.868Z,14.46
2023-12-12T00:09:18.294Z,14.55
2023-12-12T00:11:44.640Z,14.69
2023-12-12T00:14:10.980Z,14.62
2023-12-12T00:16:37.332Z,14.74
2023-12-12T00:19:03.829Z,14.31
2023-12-12T00:21:30.293Z,14.55
2023-12-12T00:23:56.646Z,14.66
2023-12-12T00:26:22.970Z,14.93
2023-12-12T00:28:49.300Z,15.08
2023-12-12T00:31:15.836Z,15.29
2023-12-12T00:33:42.207Z,15.21
2023-12-12T00:36:08.546Z,15.21
2023-12-12T00:38:34.954Z,14.79
2023-12-12T00:41:01.266Z,15.12
2023-12-12T00:43:27.632Z,15.24
2023-12-12T00:45:54.120Z,15.05
2023-12-12T00:48:20.719Z,15.24
2023-12-12T00:50:47.102Z,15.10
2023-12-12T00:53:13.449Z,14.98
2023-12-12T00:55:39.795Z,15.11
2023-12-12T00:58:06.155Z,15.25
2023-12-12T01:00:32.622Z,15.35
2023-12-12T01:02:58.959Z,15.38
2023-12-12T01:05:25.365Z,15.46
2023-12-12T01:07:51.818Z,15.30
2023-12-12T01:10:18.176Z,15.44
2023-12-12T01:12:44.550Z,15.54
2023-12-12T01:15:10.881Z,15.46
2023-12-12T01:17:37.448Z,15.42
2023-12-12T01:20:03.975Z,15.60
2023-12-12T01:22:30.505Z,15.60
2023-12-12T01:24:56.902Z,15.48
2023-12-12T01:27:23.223Z,15.59
2023-12-12T01:29:49.778Z,15.58
2023-12-12T01:32:16.125Z,15.58
2023-12-12T01:34:42.536Z,15.02
2023-12-12T01:37:09.225Z,15.24
2023-12-12T01:39:35.563Z,15.38
2023-12-12T01:42:01.886Z,15.55
2023-12-12T01:44:28.308Z,15.46
2023-12-12T01:46:54.661Z,15.37
2023-12-12T01:49:21.193Z,15.57
2023-12-12T01:51:47.702Z,15.39
2023-12-12T01:54:14.023Z,15.31
2023-12-12T01:56:40.472Z,15.36
2023-12-12T01:59:06.823Z,15.48
2023-12-12T02:01:33.193Z,15.53
2023-12-12T02:03:59.793Z,15.47
2023-12-12T02:06:26.350Z,15.32
2023-12-12T02:08:52.743Z,15.32
2023-12-12T02:11:19.064Z,15.45
2023-12-12T02:13:45.410Z,15.37
2023-12-12T02:16:11.790Z,15.33
2023-12-12T02:18:38.209Z,15.41
2023-12-12T02:21:04.714Z,15.44
2023-12-12T02:23:31.065Z,15.41
2023-12-12T02:25:57.399Z,15.22
2023-12-12T02:28:23.796Z,15.31
2023-12-12T02:30:50.243Z,15.19
2023-12-12T02:33:16.688Z,15.14
2023-12-12T02:35:43.312Z,15.23
2023-12-12T02:38:09.620Z,15.40
2023-12-12T02:40:35.982Z,15.35
2023-12-12T02:43:02.519Z,15.26
2023-12-12T02:45:28.835Z,15.32
2023-12-12T02:47:55.364Z,15.30
2023-12-12T02:50:24.123Z,15.29
2023-12-12T02:52:51.973Z,15.30
2023-12-12T02:55:18.362Z,15.34
2023-12-12T02:57:44.918Z,15.25
2023-12-12T03:00:11.256Z,15.39
2023-12-12T03:02:37.613Z,15.38
2023-12-12T03:05:04.066Z,15.35
2023-12-12T03:07:30.619Z,15.35
2023-12-12T03:09:57.091Z,15.40
2023-12-12T03:12:23.484Z,15.44
2023-12-12T03:14:49.789Z,15.21
2023-12-12T03:17:16.125Z,15.17
2023-12-12T03:19:42.588Z,15.37
2023-12-12T03:22:08.962Z,15.06
2023-12-12T03:24:35.296Z,15.29
2023-12-12T03:27:01.685Z,15.44
2023-12-12T03:29:30.166Z,15.38
2023-12-12T03:31:57.938Z,15.30
2023-12-12T03:34:24.494Z,15.39
2023-12-12T03:36:50.996Z,15.33
2023-12-12T03:39:17.415Z,15.36
2023-12-12T03:41:43.757Z,15.46
2023-12-12T03:44:10.069Z,15.36
2023-12-12T03:46:36.386Z,15.46
2023-12-12T03:49:03.078Z,15.41
2023-12-12T03:51:29.437Z,15.47
2023-12-12T03:53:55.755Z,15.48
2023-12-12T03:56:22.174Z,15.47
2023-12-12T03:58:48.475Z,15.35
2023-12-12T04:01:14.910Z,15.34
2023-12-12T04:03:41.416Z,15.30
2023-12-12T04:06:07.749Z,15.35
2023-12-12T04:08:34.076Z,15.43
2023-12-12T04:11:00.603Z,15.44
2023-12-12T04:13:26.934Z,15.40
2023-12-12T04:15:53.290Z,15.42
2023-12-12T04:18:19.815Z,15.42
2023-12-12T04:20:46.215Z,15.50
2023-12-12T04:23:12.515Z,15.35
2023-12-12T04:25:38.888Z,15.27
2023-12-12T04:28:05.232Z,15.15
2023-12-12T04:30:31.538Z,15.23
2023-12-12T04:32:58.009Z,15.38
2023-12-12T04:35:24.357Z,15.18
2023-12-12T04:37:50.707Z,15.29
2023-12-12T04:40:17.082Z,15.30
2023-12-12T04:42:43.534Z,15.21
2023-12-12T04:45:09.849Z,15.38
2023-12-12T04:47:36.534Z,15.37
2023-12-12T04:50:03.219Z,15.05
2023-12-12T04:52:29.674Z,15.03
2023-12-12T04:54:56.091Z,15.11
2023-12-12T04:57:22.437Z,15.20
2023-12-12T04:59:48.761Z,15.21
2023-12-12T05:02:15.090Z,15.29
2023-12-12T05:04:41.450Z,15.11
2023-12-12T05:07:07.830Z,15.06
2023-12-12T05:09:34.176Z,15.16
2023-12-12T05:12:00.490Z,15.25
2023-12-12T05:14:26.803Z,15.13
2023-12-12T05:17:00.965Z,15.00
2023-12-12T05:19:33.873Z,15.00
2023-12-12T05:22:00.447Z,15.14
2023-12-12T05:24:26.805Z,15.04
2023-12-12T05:26:53.127Z,15.08
2023-12-12T05:29:19.855Z,14.75
2023-12-12T05:31:46.217Z,14.79
2023-12-12T05:34:12.583Z,14.69
2023-12-12T05:36:39.065Z,14.65
2023-12-12T05:39:05.396Z,14.84
2023-12-12T05:41:31.711Z,14.65
2023-12-12T05:43:58.072Z,14.74
2023-12-12T05:46:24.476Z,14.78
2023-12-12T05:48:50.920Z,14.69
2023-12-12T05:51:17.346Z,14.46
2023-12-12T05:53:43.667Z,14.21
2023-12-12T05:56:09.979Z,14.42
2023-12-12T05:58:36.440Z,14.45
2023-12-12T06:01:02.826Z,14.41
2023-12-12T06:03:29.228Z,14.46
2023-12-12T06:05:55.598Z,14.67
2023-12-12T06:08:21.942Z,14.76
2023-12-12T06:10:48.321Z,14.66
2023-12-12T06:13:14.768Z,14.88
2023-12-12T06:15:41.126Z,14.89
2023-12-12T06:18:07.481Z,15.06
2023-12-12T06:20:33.875Z,14.97
2023-12-12T06:23:00.201Z,15.10
2023-12-12T06:25:26.513Z,15.01
2023-12-12T06:27:52.887Z,15.08
2023-12-12T06:30:19.296Z,14.91
2023-12-12T06:32:45.788Z,14.93
2023-12-12T06:35:12.253Z,14.91
2023-12-12T06:37:38.679Z,15.10
2023-12-12T06:40:05.148Z,15.00
2023-12-12T06:42:31.501Z,15.10
2023-12-12T06:44:57.805Z,15.06
2023-12-12T06:47:26.073Z,15.00
2023-12-12T06:49:52.479Z,15.11
2023-12-12T06:52:18.995Z,15.10
2023-12-12T06:54:45.433Z,15.08
2023-12-12T06:57:11.741Z,15.11
2023-12-12T06:59:38.062Z,15.28
2023-12-12T07:02:04.490Z,15.18
2023-12-12T07:04:30.854Z,15.29
2023-12-12T07:06:57.295Z,15.27
2023-12-12T07:09:23.714Z,15.38
2023-12-12T07:11:50.020Z,15.17
2023-12-12T07:14:16.338Z,15.18
2023-12-12T07:16:42.823Z,15.16
2023-12-12T07:19:09.246Z,15.32
2023-12-12T07:21:35.635Z,15.14
2023-12-12T07:24:02.092Z,15.33
2023-12-12T07:26:28.401Z,15.29
2023-12-12T07:28:54.744Z,15.31
2023-12-12T07:31:21.326Z,15.32
2023-12-12T07:33:47.852Z,15.22
2023-12-12T07:36:14.187Z,15.30
2023-12-12T07:38:40.688Z,15.24
2023-12-12T07:41:07.005Z,15.33
2023-12-12T07:43:33.370Z,15.34
2023-12-12T07:45:59.918Z,15.28
2023-12-12T07:48:26.358Z,15.30
2023-12-12T07:50:52.829Z,15.29
2023-12-12T07:53:19.278Z,15.38
2023-12-12T07:55:45.630Z,15.41
2023-12-12T07:58:11.989Z,15.32
2023-12-12T08:00:38.403Z,15.41
2023-12-12T08:03:04.870Z,15.36
2023-12-12T08:05:31.199Z,15.35
2023-12-12T08:07:57.519Z,15.24
2023-12-12T08:10:24.021Z,15.46
2023-12-12T08:12:50.361Z,15.43
2023-12-12T08:15:16.671Z,15.52
2023-12-12T08:17:43.140Z,15.62
2023-12-12T08:20:09.515Z,15.69
2023-12-12T08:22:35.948Z,15.56
2023-12-12T08:25:02.782Z,15.50
2023-12-12T08:27:29.458Z,15.32
2023-12-12T08:29:55.890Z,15.37
2023-12-12T08:32:22.306Z,15.09
2023-12-12T08:34:48.719Z,15.18
2023-12-12T08:37:15.088Z,15.23
2023-12-12T08:39:41.491Z,15.47
2023-12-12T08:42:07.794Z,15.46
2023-12-12T08:44:34.138Z,15.50
2023-12-12T08:47:00.593Z,15.52
2023-12-12T08:49:27.022Z,15.46
2023-12-12T08:51:53.451Z,15.54
2023-12-12T08:54:19.893Z,15.47
2023-12-12T08:56:46.230Z,15.62
2023-12-12T08:59:12.527Z,15.47
2023-12-12T09:01:39.173Z,15.41
2023-12-12T09:04:05.594Z,15.46
2023-12-12T09:06:32.001Z,15.60
2023-12-12T09:08:58.373Z,15.41
2023-12-12T09:11:24.699Z,15.37
2023-12-12T09:13:51.015Z,15.28
2023-12-12T09:16:17.449Z,15.48
2023-12-12T09:18:43.920Z,15.54
2023-12-12T09:21:10.515Z,15.54
2023-12-12T09:23:37.148Z,15.44
2023-12-12T09:26:03.457Z,15.46
2023-12-12T09:28:29.848Z,15.55
2023-12-12T09:30:56.724Z,15.43
2023-12-12T09:33:23.301Z,15.37
2023-12-12T09:35:49.683Z,15.49
2023-12-12T09:38:16.130Z,15.52
2023-12-12T09:40:42.466Z,15.44
2023-12-12T09:43:08.863Z,15.58
2023-12-12T09:45:35.212Z,15.39
2023-12-12T09:48:01.652Z,15.59
2023-12-12T09:50:28.210Z,15.54
2023-12-12T09:52:54.540Z,15.66
2023-12-12T09:55:20.867Z,15.60
2023-12-12T09:57:47.340Z,15.53
2023-12-12T10:00:13.656Z,15.82
2023-12-12T10:02:39.983Z,15.71
2023-12-12T10:05:06.453Z,15.89
2023-12-12T10:07:32.958Z,15.92
2023-12-12T10:09:59.429Z,15.87
2023-12-12T10:12:27.860Z,15.73
2023-12-12T10:14:56.166Z,15.71
2023-12-12T10:17:22.503Z,15.53
2023-12-12T10:19:49.027Z,15.61
2023-12-12T10:22:15.429Z,15.72
2023-12-12T10:24:41.759Z,15.66
2023-12-12T10:27:08.201Z,15.55
2023-12-12T10:29:34.533Z,15.67
2023-12-12T10:32:00.907Z,15.68
2023-12-12T10:34:27.381Z,15.77
2023-12-12T10:36:53.949Z,15.85
2023-12-12T10:39:20.312Z,15.91
2023-12-12T10:41:46.624Z,15.79
2023-12-12T10:44:13.172Z,15.62
2023-12-12T10:46:39.493Z,15.85
2023-12-12T10:49:05.879Z,15.71
2023-12-12T10:51:32.351Z,15.81
2023-12-12T10:53:58.666Z,15.72
2023-12-12T10:56:24.994Z,15.92
2023-12-12T10:58:51.471Z,15.92
2023-12-12T11:01:17.979Z,15.86
2023-12-12T11:03:44.609Z,15.91
2023-12-12T11:06:11.257Z,15.79
2023-12-12T11:08:37.679Z,15.98
2023-12-12T11:11:04.026Z,15.80
2023-12-12T11:13:30.602Z,15.65
2023-12-12T11:15:56.956Z,15.66
2023-12-12T11:18:23.363Z,15.44
2023-12-12T11:20:49.742Z,15.62
2023-12-12T11:23:16.129Z,15.57
2023-12-12T11:25:42.583Z,15.33
2023-12-12T11:28:11.471Z,15.58
2023-12-12T11:30:38.040Z,15.59
2023-12-12T11:33:04.563Z,15.70
2023-12-12T11:35:31.325Z,15.67
2023-12-12T11:37:57.849Z,15.61
2023-12-12T11:40:24.274Z,15.68
2023-12-12T11:42:50.614Z,15.64
2023-12-12T11:45:16.941Z,15.51
2023-12-12T11:47:43.416Z,15.69
2023-12-12T11:50:09.869Z,15.75
2023-12-12T11:52:36.306Z,15.78
2023-12-12T11:55:02.782Z,15.84
2023-12-12T11:57:29.134Z,15.71
2023-12-12T11:59:55.441Z,15.68
2023-12-12T12:02:21.837Z,15.78
2023-12-12T12:04:48.206Z,15.74
2023-12-12T12:07:14.535Z,15.82
2023-12-12T12:09:40.979Z,15.85
2023-12-12T12:12:07.307Z,15.83
2023-12-12T12:14:33.640Z,15.85
2023-12-12T12:16:59.980Z,15.81
2023-12-12T12:19:26.353Z,15.87
2023-12-12T12:21:52.779Z,15.89
2023-12-12T12:24:19.112Z,15.87
2023-12-12T12:26:45.444Z,15.98
2023-12-12T12:29:11.771Z,15.96
2023-12-12T12:31:38.857Z,15.82
2023-12-12T12:34:06.088Z,15.61
2023-12-12T12:36:32.456Z,15.70
2023-12-12T12:38:58.883Z,15.69
2023-12-12T12:41:25.205Z,15.57
2023-12-12T12:43:51.519Z,15.49
2023-12-12T12:46:17.912Z,15.46
2023-12-12T12:48:44.354Z,14.86
2023-12-12T12:51:10.740Z,14.69
2023-12-12T12:53:39.284Z,14.76
2023-12-12T12:56:07.161Z,14.69
2023-12-12T12:58:33.512Z,14.71
2023-12-12T13:00:59.984Z,14.95
2023-12-12T13:03:26.369Z,14.97
2023-12-12T13:05:52.970Z,15.19
2023-12-12T13:08:19.293Z,15.19
2023-12-12T13:10:50.430Z,15.18
2023-12-12T13:13:18.033Z,15.13
2023-12-12T13:15:44.394Z,15.21
2023-12-12T13:18:10.782Z,15.18
2023-12-12T13:20:37.169Z,15.34
2023-12-12T13:23:03.518Z,15.23
2023-12-12T13:25:29.908Z,15.49
2023-12-12T13:27:56.253Z,15.60
2023-12-12T13:30:22.661Z,15.46
2023-12-12T13:32:49.261Z,15.45
2023-12-12T13:35:22.515Z,15.43
2023-12-12T13:37:58.080Z,15.71
2023-12-12T13:40:24.994Z,15.52
2023-12-12T13:42:51.517Z,15.56
2023-12-12T13:45:17.836Z,15.35
2023-12-12T13:47:44.158Z,15.58
2023-12-12T13:50:10.590Z,15.47
2023-12-12T13:52:37.006Z,15.31
2023-12-12T13:55:03.420Z,15.48
2023-12-12T13:57:29.870Z,15.47
2023-12-12T13:59:56.270Z,15.45
2023-12-12T14:02:29.843Z,15.45
2023-12-12T14:04:59.875Z,15.37
2023-12-12T14:07:26.290Z,15.35
2023-12-12T14:09:52.645Z,15.38
2023-12-12T14:12:18.990Z,15.47
2023-12-12T14:14:45.324Z,15.47
2023-12-12T14:17:11.658Z,15.25
2023-12-12T14:19:38.086Z,15.38
2023-12-12T14:22:04.594Z,15.39
2023-12-12T14:24:31.083Z,15.34
2023-12-12T14:26:57.402Z,15.28
2023-12-12T14:29:23.772Z,15.33
2023-12-12T14:31:50.187Z,15.21
2023-12-12T14:34:16.656Z,15.22
2023-12-12T14:36:43.023Z,15.10
2023-12-12T14:39:09.345Z,15.21
2023-12-12T14:41:35.720Z,15.27
2023-12-12T14:44:02.034Z,15.30
2023-12-12T14:46:28.377Z,15.28
2023-12-12T14:48:54.812Z,15.28
2023-12-12T14:51:21.252Z,15.23
2023-12-12T14:53:47.570Z,15.14
2023-12-12T14:56:15.225Z,15.13
2023-12-12T14:58:41.617Z,15.11
2023-12-12T15:01:08.058Z,15.09
2023-12-12T15:03:34.521Z,15.23
2023-12-12T15:06:00.875Z,15.27
2023-12-12T15:08:27.220Z,15.32
2023-12-12T15:10:53.639Z,15.19
2023-12-12T15:13:20.101Z,15.12
2023-12-12T15:15:46.442Z,14.95
2023-12-12T15:18:12.816Z,15.00
2023-12-12T15:20:39.175Z,15.12
2023-12-12T15:23:05.490Z,15.13
2023-12-12T15:25:36.433Z,15.27
2023-12-12T15:28:24.216Z,15.36
2023-12-12T15:30:53.751Z,15.14
2023-12-12T15:33:20.275Z,14.90
2023-12-12T15:35:46.643Z,14.68
2023-12-12T15:38:12.971Z,14.90
2023-12-12T15:40:39.379Z,14.94
2023-12-12T15:43:05.866Z,14.98
2023-12-12T15:45:32.201Z,15.09
2023-12-12T15:47:58.596Z,15.01
2023-12-12T15:50:25.057Z,15.02
2023-12-12T15:52:51.479Z,15.07
2023-12-12T15:55:17.827Z,15.05
2023-12-12T15:57:44.150Z,15.02
2023-12-12T16:00:10.486Z,15.04
2023-12-12T16:02:37.048Z,15.04
2023-12-12T16:05:03.646Z,15.08
2023-12-12T16:07:30.104Z,15.08
2023-12-12T16:09:56.478Z,15.11
2023-12-12T16:12:22.792Z,15.16
2023-12-12T16:14:49.120Z,15.14
2023-12-12T16:17:15.473Z,15.17
2023-12-12T16:19:41.904Z,15.15
2023-12-12T16:22:08.269Z,15.18
2023-12-12T16:24:34.630Z,15.16
2023-12-12T16:27:00.964Z,15.24
2023-12-12T16:29:27.290Z,15.22
2023-12-12T16:31:53.773Z,15.30
2023-12-12T16:34:20.158Z,15.24
2023-12-12T16:36:49.736Z,15.30
2023-12-12T16:39:21.101Z,15.03
2023-12-12T16:41:47.445Z,15.07
2023-12-12T16:44:13.758Z,14.48
2023-12-12T16:46:40.170Z,14.75
2023-12-12T16:49:06.917Z,14.70
2023-12-12T16:51:33.258Z,14.92
2023-12-12T16:53:59.569Z,14.72
2023-12-12T16:56:25.891Z,14.90
2023-12-12T16:58:52.419Z,14.68
2023-12-12T17:01:18.829Z,14.96
2023-12-12T17:03:45.305Z,15.04
2023-12-12T17:06:11.641Z,14.94
2023-12-12T17:08:37.951Z,14.81
2023-12-12T17:11:04.322Z,14.75
2023-12-12T17:13:30.667Z,14.87
2023-12-12T17:15:57.170Z,14.94
2023-12-12T17:18:26.324Z,15.03
2023-12-12T17:20:52.701Z,15.01
2023-12-12T17:23:19.025Z,14.99
2023-12-12T17:25:45.445Z,15.05
2023-12-12T17:28:12.015Z,15.04
2023-12-12T17:30:38.464Z,15.01
2023-12-12T17:33:04.837Z,15.10
2023-12-12T17:35:31.196Z,15.05
2023-12-12T17:37:57.622Z,15.11
2023-12-12T17:40:24.231Z,15.05
2023-12-12T17:42:50.566Z,15.17
2023-12-12T17:45:16.886Z,15.08
2023-12-12T17:47:43.256Z,15.11
2023-12-12T17:50:09.902Z,15.14
2023-12-12T17:52:36.617Z,15.10
2023-12-12T17:55:02.983Z,15.04
2023-12-12T17:57:29.359Z,15.02
2023-12-12T17:59:55.752Z,14.94
2023-12-12T18:02:22.071Z,15.00
2023-12-12T18:04:48.711Z,14.69
2023-12-12T18:07:15.242Z,14.89
2023-12-12T18:09:41.597Z,15.00
2023-12-12T18:12:07.904Z,14.87
2023-12-12T18:14:34.223Z,14.90
2023-12-12T18:17:00.540Z,14.84
2023-12-12T18:19:26.925Z,14.92
2023-12-12T18:21:53.392Z,14.99
2023-12-12T18:24:19.728Z,15.01
2023-12-12T18:26:46.037Z,14.95
2023-12-12T18:29:12.369Z,14.90
2023-12-12T18:31:38.820Z,15.00
2023-12-12T18:34:05.507Z,15.04
2023-12-12T18:36:31.931Z,14.81
2023-12-12T18:38:58.243Z,14.77
2023-12-12T18:41:24.594Z,14.80
2023-12-12T18:43:50.998Z,14.82
2023-12-12T18:46:17.548Z,14.82
2023-12-12T18:48:43.982Z,14.81
2023-12-12T18:51:10.364Z,14.67
2023-12-12T18:53:36.701Z,14.70
2023-12-12T18:56:03.014Z,14.71
2023-12-12T18:58:29.428Z,14.78
2023-12-12T19:00:55.824Z,14.80
2023-12-12T19:03:22.168Z,14.86
2023-12-12T19:05:48.660Z,14.80
2023-12-12T19:08:15.055Z,14.35
2023-12-12T19:10:41.405Z,14.47
2023-12-12T19:13:07.730Z,14.60
2023-12-12T19:15:34.089Z,14.47
2023-12-12T19:18:00.422Z,14.22
2023-12-12T19:20:26.754Z,14.28
2023-12-12T19:22:53.157Z,14.50
2023-12-12T19:25:19.525Z,14.60
2023-12-12T19:27:45.904Z,14.47
2023-12-12T19:30:12.248Z,14.46
2023-12-12T19:32:38.715Z,14.51
2023-12-12T19:35:05.242Z,14.53
2023-12-12T19:37:31.783Z,14.40
2023-12-12T19:39:58.402Z,14.54
2023-12-12T19:42:24.740Z,14.53
2023-12-12T19:44:51.072Z,14.37
2023-12-12T19:47:17.391Z,14.07
2023-12-12T19:49:43.850Z,14.19
2023-12-12T19:52:10.456Z,14.39
2023-12-12T19:54:36.822Z,14.32
2023-12-12T19:57:03.185Z,14.38
2023-12-12T19:59:29.491Z,14.18
2023-12-12T20:01:55.854Z,14.08
2023-12-12T20:04:22.251Z,14.21
2023-12-12T20:06:48.590Z,14.28
2023-12-12T20:09:14.983Z,14.35
2023-12-12T20:11:41.296Z,14.48
2023-12-12T20:14:07.606Z,14.51
2023-12-12T20:16:34.068Z,14.54
2023-12-12T20:19:00.480Z,14.60
2023-12-12T20:21:26.905Z,14.46
2023-12-12T20:23:53.220Z,14.57
2023-12-12T20:26:19.571Z,14.65
2023-12-12T20:28:45.994Z,14.72
2023-12-12T20:31:12.468Z,14.49
2023-12-12T20:33:38.925Z,14.52
2023-12-12T20:36:05.285Z,14.36
2023-12-12T20:38:31.590Z,14.43
2023-12-12T20:40:57.916Z,14.37
2023-12-12T20:43:24.271Z,14.49
2023-12-12T20:45:50.663Z,14.51
2023-12-12T20:48:17.072Z,14.58
2023-12-12T20:50:43.433Z,14.56
2023-12-12T20:53:09.759Z,14.52
2023-12-12T20:55:36.159Z,14.55
2023-12-12T20:58:02.526Z,14.65
2023-12-12T21:00:29.210Z,14.63
2023-12-12T21:02:55.830Z,14.59
2023-12-12T21:05:22.133Z,14.53
2023-12-12T21:07:48.557Z,14.61
2023-12-12T21:10:15.029Z,14.65
2023-12-12T21:12:41.354Z,14.76
2023-12-12T21:15:07.779Z,14.68
2023-12-12T21:17:34.324Z,14.64
2023-12-12T21:20:00.970Z,14.68
2023-12-12T21:22:27.370Z,14.68
2023-12-12T21:24:53.722Z,14.64
2023-12-12T21:27:20.066Z,14.69
2023-12-12T21:29:46.379Z,14.63
2023-12-12T21:32:12.682Z,14.72
2023-12-12T21:34:39.020Z,14.68
2023-12-12T21:37:05.380Z,14.60
2023-12-12T21:39:31.925Z,14.62
2023-12-12T21:41:58.232Z,14.62
2023-12-12T21:44:24.542Z,14.63
2023-12-12T21:46:50.897Z,14.65
2023-12-12T21:49:17.341Z,14.63
2023-12-12T21:51:43.689Z,14.52
2023-12-12T21:54:10.089Z,14.47
2023-12-12T21:56:36.420Z,14.42
2023-12-12T21:59:02.760Z,14.44
2023-12-12T22:01:29.312Z,14.57
2023-12-12T22:03:55.689Z,14.53
2023-12-12T22:06:22.033Z,14.55
2023-12-12T22:08:48.453Z,14.43
2023-12-12T22:11:14.752Z,14.42
2023-12-12T22:13:41.134Z,14.43
2023-12-12T22:16:07.661Z,14.41
2023-12-12T22:18:34.005Z,14.37
2023-12-12T22:21:00.354Z,14.39
2023-12-12T22:23:26.723Z,14.39
2023-12-12T22:25:53.086Z,14.36
2023-12-12T22:28:19.437Z,14.41
2023-12-12T22:30:45.937Z,14.49
2023-12-12T22:33:12.298Z,14.41
2023-12-12T22:35:38.717Z,14.60
2023-12-12T22:38:05.081Z,14.54
2023-12-12T22:40:31.403Z,14.73
2023-12-12T22:42:57.758Z,14.62
2023-12-12T22:45:24.280Z,14.64
2023-12-12T22:47:50.621Z,14.51
2023-12-12T22:50:16.986Z,14.50
2023-12-12T22:52:43.474Z,14.32
2023-12-12T22:55:09.838Z,14.37
2023-12-12T22:57:36.315Z,14.50
2023-12-12T23:00:03.112Z,14.53
2023-12-12T23:02:29.537Z,14.42
2023-12-12T23:04:56.902Z,14.43
2023-12-12T23:07:23.328Z,14.60
2023-12-12T23:09:49.724Z,14.60
2023-12-12T23:12:16.037Z,14.63
2023-12-12T23:14:42.534Z,14.53
2023-12-12T23:17:08.920Z,14.60
2023-12-12T23:19:35.324Z,14.85
2023-12-12T23:22:01.715Z,14.55
2023-12-12T23:24:28.027Z,14.39
2023-12-12T23:26:54.341Z,14.27
2023-12-12T23:29:20.675Z,14.35
2023-12-12T23:31:47.044Z,14.22
2023-12-12T23:34:13.515Z,14.22
2023-12-12T23:36:39.891Z,14.29
2023-12-12T23:39:06.289Z,14.33
2023-12-12T23:41:32.647Z,14.30
2023-12-12T23:43:58.980Z,14.39
2023-12-12T23:46:25.370Z,14.37
2023-12-12T23:48:51.741Z,14.41
2023-12-12T23:51:18.101Z,14.42
2023-12-12T23:53:44.428Z,14.54
2023-12-12T23:56:10.743Z,14.61
2023-12-12T23:58:37.102Z,14.60
